Time;durP1;ratioP1;P1;durP2;ratioP2;P2;SDS_P1;SDS_P2;PMS_P1;PMS_P2;Temp;Humidity;BMP_temperature;BMP_pressure;BME280_temperature;BME280_humidity;BME280_pressure;Samples;Min_cycle;Max_cycle;Signal;HPM_P1;HPM_P2
2022/05/05 00:01:01;;;;;;;14.13;10.68;;;;;;;15.12;100.00;100457.94;5108790;28;20461;-69
2022/05/05 00:03:30;;;;;;;16.85;10.63;;;;;;;15.11;100.00;100453.53;5096922;28;20044;-68
2022/05/05 00:05:58;;;;;;;13.73;10.65;;;;;;;15.07;100.00;100450.25;5096849;28;20052;-67
2022/05/05 00:08:27;;;;;;;15.05;10.70;;;;;;;15.14;100.00;100450.63;5096775;28;20066;-68
2022/05/05 00:16:28;;;;;;;13.98;10.27;;;;;;;15.23;100.00;100455.28;5097015;28;20079;-69
2022/05/05 00:18:56;;;;;;;12.38;10.25;;;;;;;15.20;100.00;100458.22;5096619;28;20059;-69
2022/05/05 00:21:24;;;;;;;13.10;10.32;;;;;;;15.14;100.00;100464.03;5096808;28;20067;-68
2022/05/05 00:23:52;;;;;;;15.40;10.82;;;;;;;15.14;100.00;100461.38;5096328;28;20477;-67
2022/05/05 00:26:21;;;;;;;13.77;11.10;;;;;;;15.12;100.00;100455.25;5096423;28;20066;-67
2022/05/05 00:28:50;;;;;;;14.73;10.57;;;;;;;15.16;100.00;100462.13;5096183;28;20044;-66
2022/05/05 00:31:18;;;;;;;18.10;10.90;;;;;;;15.20;100.00;100460.91;5096650;28;20119;-68
2022/05/05 00:33:49;;;;;;;14.77;10.48;;;;;;;15.25;100.00;100460.53;5096326;28;20048;-68
2022/05/05 00:36:17;;;;;;;12.38;9.75;;;;;;;15.17;100.00;100458.47;5096523;28;20044;-68
2022/05/05 00:38:45;;;;;;;16.17;11.32;;;;;;;15.18;100.00;100470.91;5096013;28;20035;-68
2022/05/05 00:41:13;;;;;;;13.43;10.50;;;;;;;15.19;100.00;100464.56;5096449;28;20119;-68
2022/05/05 00:43:42;;;;;;;15.25;11.05;;;;;;;15.17;100.00;100453.94;5096205;28;20040;-70
2022/05/05 00:46:11;;;;;;;13.63;10.77;;;;;;;15.20;100.00;100450.16;5096089;28;20048;-69
2022/05/05 00:48:42;;;;;;;14.55;10.43;;;;;;;15.11;100.00;100449.03;5095884;28;20075;-69
2022/05/05 00:51:11;;;;;;;14.77;10.32;;;;;;;15.15;100.00;100444.25;5096221;28;20097;-69
2022/05/05 00:53:40;;;;;;;13.30;10.98;;;;;;;15.17;100.00;100450.41;5077971;28;20121;-69
2022/05/05 00:56:13;;;;;;;11.82;9.85;;;;;;;15.24;100.00;100443.56;5096198;28;20079;-69
2022/05/05 00:58:42;;;;;;;15.15;10.43;;;;;;;15.19;100.00;100448.44;5096255;28;20040;-69
2022/05/05 01:01:15;;;;;;;15.45;10.57;;;;;;;15.18;100.00;100454.81;5095013;28;20048;-70
2022/05/05 01:03:44;;;;;;;14.57;10.45;;;;;;;15.15;100.00;100442.47;5111555;28;20056;-70
2022/05/05 01:06:14;;;;;;;11.38;10.00;;;;;;;15.36;100.00;100439.97;5095734;28;20189;-69
2022/05/05 01:08:43;;;;;;;13.45;10.00;;;;;;;15.12;100.00;100450.72;5094713;28;20050;-70
2022/05/05 01:11:11;;;;;;;14.45;9.75;;;;;;;15.23;100.00;100452.59;5095932;28;20477;-69
2022/05/05 01:13:40;;;;;;;12.77;10.02;;;;;;;14.92;100.00;100456.75;5094813;28;20465;-69
2022/05/05 01:16:10;;;;;;;11.73;10.00;;;;;;;14.85;100.00;100453.66;5095332;28;20040;-69
2022/05/05 01:18:40;;;;;;;11.43;9.57;;;;;;;15.08;100.00;100448.41;5095708;28;20044;-69
2022/05/05 01:21:10;;;;;;;13.55;9.35;;;;;;;14.86;100.00;100452.72;5077667;28;20048;-69
2022/05/05 01:23:40;;;;;;;11.52;9.05;;;;;;;14.90;100.00;100450.66;5095745;28;20051;-69
2022/05/05 01:28:56;;;;;;;14.18;10.23;;;;;;;14.58;100.00;100458.41;5095359;28;20051;-70
2022/05/05 01:31:25;;;;;;;14.23;9.95;;;;;;;14.65;100.00;100461.50;5077559;28;20143;-68
2022/05/05 01:33:53;;;;;;;12.90;9.90;;;;;;;14.82;100.00;100464.66;5095225;28;20122;-66
2022/05/05 01:36:21;;;;;;;14.25;10.05;;;;;;;14.95;100.00;100469.09;5095064;28;20040;-68
2022/05/05 01:38:51;;;;;;;14.32;10.73;;;;;;;14.73;100.00;100476.06;5094803;28;20039;-68
2022/05/05 01:41:21;;;;;;;14.27;10.23;;;;;;;14.71;100.00;100483.38;5095088;28;20050;-67
2022/05/05 01:43:50;;;;;;;13.25;10.25;;;;;;;14.77;100.00;100477.56;5095097;28;20051;-68
2022/05/05 01:46:18;;;;;;;13.95;10.38;;;;;;;14.89;100.00;100484.72;5095292;28;20040;-67
2022/05/05 01:48:46;;;;;;;13.52;10.63;;;;;;;14.60;100.00;100491.38;5094926;28;20050;-68
2022/05/05 01:51:15;;;;;;;12.85;9.93;;;;;;;14.77;100.00;100493.69;5094645;28;20478;-67
2022/05/05 01:53:43;;;;;;;14.93;10.95;;;;;;;14.67;100.00;100502.50;5094998;28;20040;-67
2022/05/05 01:56:13;;;;;;;14.82;11.90;;;;;;;14.60;100.00;100499.44;5094908;28;20047;-67
2022/05/05 01:58:43;;;;;;;14.77;11.43;;;;;;;14.64;100.00;100494.69;5095035;28;20392;-67
2022/05/05 02:01:11;;;;;;;15.68;11.13;;;;;;;14.48;100.00;100505.69;5094835;28;20046;-67
2022/05/05 02:03:41;;;;;;;13.93;11.98;;;;;;;14.53;100.00;100503.53;5094842;28;20040;-67
2022/05/05 02:06:09;;;;;;;15.02;10.35;;;;;;;14.48;100.00;100508.38;5094902;28;20040;-67
2022/05/05 02:08:37;;;;;;;14.73;10.77;;;;;;;14.50;100.00;100511.81;5094756;28;20044;-67
2022/05/05 02:11:05;;;;;;;14.60;10.40;;;;;;;14.44;100.00;100509.53;5110112;28;20071;-69
2022/05/05 02:13:35;;;;;;;13.95;10.80;;;;;;;14.39;100.00;100512.53;5094666;28;20036;-69
2022/05/05 02:16:04;;;;;;;12.10;10.02;;;;;;;14.49;100.00;100515.47;5094011;28;20040;-69
2022/05/05 02:18:32;;;;;;;13.68;10.13;;;;;;;14.53;100.00;100519.63;5094527;28;20123;-69
2022/05/05 02:21:01;;;;;;;12.13;9.80;;;;;;;14.43;100.00;100521.22;5094453;28;20042;-69
2022/05/05 02:23:29;;;;;;;13.10;9.10;;;;;;;14.49;100.00;100528.88;5094651;28;20052;-67
2022/05/05 02:25:57;;;;;;;12.88;9.10;;;;;;;14.56;100.00;100532.81;5094067;28;20044;-69
2022/05/05 02:28:26;;;;;;;16.35;9.85;;;;;;;14.47;100.00;100539.69;5093181;28;20056;-66
2022/05/05 02:30:56;;;;;;;11.00;9.05;;;;;;;14.48;100.00;100540.59;5094130;28;20051;-69
2022/05/05 02:33:24;;;;;;;13.85;9.02;;;;;;;14.53;100.00;100535.72;5094288;28;20040;-67
2022/05/05 02:38:43;;;;;;;12.43;9.45;;;;;;;14.37;100.00;100535.94;5094018;28;20054;-68
2022/05/05 02:41:12;;;;;;;12.13;9.00;;;;;;;14.39;100.00;100533.16;5093755;28;20126;-69
2022/05/05 02:43:40;;;;;;;12.48;9.70;;;;;;;14.35;100.00;100531.66;5094074;28;20047;-67
2022/05/05 02:46:10;;;;;;;11.77;9.70;;;;;;;14.07;100.00;100530.91;5093868;28;20043;-69
2022/05/05 02:48:39;;;;;;;13.88;10.70;;;;;;;14.02;100.00;100527.72;5093753;28;20040;-69
2022/05/05 02:51:07;;;;;;;13.98;9.80;;;;;;;14.18;100.00;100516.72;5093501;28;20101;-69
2022/05/05 02:56:21;;;;;;;10.95;8.85;;;;;;;14.30;100.00;100518.56;5093894;28;20119;-68
2022/05/05 02:58:49;;;;;;;14.10;9.20;;;;;;;14.27;100.00;100522.31;5093891;28;20044;-69
2022/05/05 03:01:18;;;;;;;11.52;8.90;;;;;;;14.14;100.00;100513.44;5093552;28;20133;-68
2022/05/05 03:03:47;;;;;;;12.50;8.93;;;;;;;14.18;100.00;100517.59;5093782;28;20055;-69
2022/05/05 03:06:15;;;;;;;10.63;8.23;;;;;;;14.17;100.00;100515.88;5093718;28;20040;-69
2022/05/05 03:08:45;;;;;;;11.45;8.50;;;;;;;14.16;100.00;100516.84;5093474;28;20047;-69
2022/05/05 03:11:13;;;;;;;11.65;8.43;;;;;;;14.06;100.00;100522.97;5093433;28;20040;-69
2022/05/05 03:13:44;;;;;;;12.35;8.82;;;;;;;14.11;100.00;100521.69;5092411;28;20481;-68
2022/05/05 03:16:14;;;;;;;12.80;9.27;;;;;;;14.25;100.00;100524.25;5085123;28;20048;-68
2022/05/05 03:18:43;;;;;;;12.82;9.13;;;;;;;14.19;100.00;100521.16;5072055;28;20124;-69
2022/05/05 03:21:12;;;;;;;12.23;8.82;;;;;;;14.22;100.00;100524.47;5072966;28;20135;-69
2022/05/05 03:23:40;;;;;;;12.48;8.68;;;;;;;14.09;100.00;100523.63;5073110;28;20047;-69
2022/05/05 03:26:08;;;;;;;13.52;9.15;;;;;;;14.12;100.00;100526.09;5073015;28;20131;-69
2022/05/05 03:28:36;;;;;;;12.00;8.75;;;;;;;14.18;100.00;100525.63;5073373;28;20094;-67
2022/05/05 03:31:05;;;;;;;10.73;8.50;;;;;;;14.14;100.00;100521.47;5072951;28;20401;-67
2022/05/05 03:33:34;;;;;;;11.32;8.65;;;;;;;14.11;100.00;100527.06;5073184;28;20489;-67
2022/05/05 03:36:04;;;;;;;12.13;9.27;;;;;;;14.06;100.00;100518.47;5072259;28;20040;-68
2022/05/05 03:38:32;;;;;;;11.18;9.10;;;;;;;14.04;100.00;100521.25;5073173;28;20041;-67
2022/05/05 03:41:00;;;;;;;11.20;8.77;;;;;;;14.02;100.00;100516.97;5071313;28;20059;-68
2022/05/05 03:43:28;;;;;;;13.82;9.00;;;;;;;14.01;100.00;100520.63;5073057;28;20052;-69
2022/05/05 03:45:57;;;;;;;11.55;8.48;;;;;;;14.04;100.00;100517.72;5072812;28;20052;-69
2022/05/05 03:48:26;;;;;;;11.60;8.65;;;;;;;14.06;100.00;100515.78;5073033;28;20041;-69
2022/05/05 03:50:56;;;;;;;11.88;9.18;;;;;;;14.24;100.00;100511.81;5072621;28;20218;-69
2022/05/05 03:53:26;;;;;;;10.95;8.60;;;;;;;14.30;100.00;100503.31;5071671;28;20044;-69
2022/05/05 03:55:54;;;;;;;13.80;9.23;;;;;;;14.31;100.00;100502.34;5071376;28;20052;-69
2022/05/05 03:58:22;;;;;;;11.20;9.25;;;;;;;14.36;100.00;100495.78;5073087;28;20098;-68
2022/05/05 04:00:51;;;;;;;14.00;9.32;;;;;;;14.25;100.00;100484.00;5072625;28;20048;-68
2022/05/05 04:03:31;;;;;;;13.63;9.63;;;;;;;14.30;100.00;100489.06;5071570;28;20044;-68
2022/05/05 04:06:02;;;;;;;14.55;9.73;;;;;;;14.36;100.00;100483.22;5071105;28;20567;-68
2022/05/05 04:08:33;;;;;;;17.73;10.27;;;;;;;14.45;100.00;100481.75;5071705;28;20122;-67
2022/05/05 04:11:01;;;;;;;13.50;9.48;;;;;;;14.40;100.00;100481.19;5071331;28;20131;-68
2022/05/05 04:13:30;;;;;;;13.98;9.88;;;;;;;14.50;100.00;100476.91;5071710;28;20452;-67
2022/05/05 04:15:58;;;;;;;12.20;9.10;;;;;;;14.48;100.00;100470.81;5071102;28;20481;-67
2022/05/05 04:18:26;;;;;;;12.23;9.75;;;;;;;14.56;100.00;100471.94;5072876;28;20075;-68
2022/05/05 04:20:54;;;;;;;13.25;9.30;;;;;;;14.54;100.00;100475.69;5071408;28;20482;-68
2022/05/05 04:23:23;;;;;;;14.70;10.30;;;;;;;14.43;100.00;100476.47;5072944;28;20102;-68
2022/05/05 04:26:10;;;;;;;15.20;12.23;;;;;;;14.42;100.00;100493.53;5072522;28;20041;-66
2022/05/05 04:28:39;;;;;;;18.42;11.98;;;;;;;14.42;100.00;100503.41;5072713;28;20052;-69
2022/05/05 04:31:07;;;;;;;17.35;11.38;;;;;;;14.42;100.00;100504.25;5080401;28;20473;-66
2022/05/05 04:33:38;;;;;;;14.65;10.75;;;;;;;14.46;100.00;100510.28;5075458;28;20067;-66
2022/05/05 04:36:07;;;;;;;15.50;11.25;;;;;;;14.53;100.00;100507.06;5092563;28;20043;-66
2022/05/05 04:38:35;;;;;;;13.73;10.77;;;;;;;14.52;100.00;100520.59;5092737;28;20473;-66
2022/05/05 04:41:04;;;;;;;13.90;10.23;;;;;;;14.78;100.00;100535.69;5077560;28;20095;-66
2022/05/05 04:43:34;;;;;;;13.30;9.90;;;;;;;14.66;100.00;100539.22;5054739;28;20080;-65
2022/05/05 04:46:03;;;;;;;11.52;9.32;;;;;;;14.53;100.00;100531.22;5054217;28;20047;-66
2022/05/05 04:48:31;;;;;;;13.95;9.88;;;;;;;14.53;100.00;100538.41;5055331;28;20110;-65
2022/05/05 04:51:00;;;;;;;14.18;10.30;;;;;;;14.58;100.00;100547.00;5082301;28;20036;-68
2022/05/05 04:53:28;;;;;;;14.73;10.13;;;;;;;14.66;100.00;100543.75;5072356;28;20461;-66
2022/05/05 04:55:56;;;;;;;13.35;8.60;;;;;;;14.91;100.00;100548.19;5066379;28;20094;-67
2022/05/05 04:58:24;;;;;;;14.07;9.32;;;;;;;14.81;100.00;100545.31;5081558;28;20040;-67
2022/05/05 05:00:54;;;;;;;12.35;8.63;;;;;;;14.81;100.00;100551.56;5065573;28;20047;-67
2022/05/05 05:03:35;;;;;;;10.98;8.57;;;;;;;15.00;99.97;100550.19;5079673;28;20500;-67
2022/05/05 05:06:05;;;;;;;11.05;8.55;;;;;;;15.16;97.05;100546.28;5083481;28;20056;-68
2022/05/05 05:08:33;;;;;;;11.80;8.32;;;;;;;15.24;97.45;100548.38;5067092;28;20049;-67
2022/05/05 05:11:02;;;;;;;11.48;8.43;;;;;;;15.24;96.27;100543.00;5068561;28;20580;-68
2022/05/05 05:13:30;;;;;;;13.23;8.85;;;;;;;15.21;97.51;100543.22;5086043;28;20041;-67
2022/05/05 05:15:59;;;;;;;11.77;8.98;;;;;;;15.25;97.00;100546.53;5094126;28;20482;-66
2022/05/05 05:18:28;;;;;;;11.35;8.75;;;;;;;15.34;96.27;100545.84;5095331;28;20044;-67
2022/05/05 05:20:57;;;;;;;13.85;9.10;;;;;;;15.29;96.48;100543.50;5077353;28;20465;-67
2022/05/05 05:23:25;;;;;;;10.77;8.77;;;;;;;15.31;96.65;100540.72;5076725;28;20131;-69
2022/05/05 05:25:53;;;;;;;11.15;8.85;;;;;;;15.32;96.68;100545.97;5077274;28;20043;-69
2022/05/05 05:28:21;;;;;;;14.00;9.73;;;;;;;15.37;95.16;100541.13;5095192;28;20044;-69
2022/05/05 05:30:49;;;;;;;14.95;9.32;;;;;;;15.31;94.98;100546.94;5095291;28;20044;-73
2022/05/05 05:33:19;;;;;;;12.73;9.18;;;;;;;15.25;95.91;100542.03;5095075;28;20055;-71
2022/05/05 05:35:47;;;;;;;17.60;9.75;;;;;;;15.29;96.85;100545.34;5094844;28;20093;-71
2022/05/05 05:38:19;;;;;;;15.10;9.20;;;;;;;15.48;95.30;100555.56;5076913;28;20048;-70
2022/05/05 05:40:48;;;;;;;11.85;8.23;;;;;;;15.62;95.01;100560.78;5084607;28;20386;-71
2022/05/05 05:43:16;;;;;;;11.63;8.35;;;;;;;15.41;98.27;100549.78;5094436;28;20047;-70
2022/05/05 05:45:44;;;;;;;11.30;8.98;;;;;;;15.40;100.00;100540.88;5095009;28;20050;-71
2022/05/05 05:48:13;;;;;;;16.23;9.75;;;;;;;15.31;100.00;100549.63;5093424;28;20052;-73
2022/05/05 05:50:42;;;;;;;18.67;10.43;;;;;;;15.18;100.00;100554.22;5094914;28;20040;-72
2022/05/05 05:53:11;;;;;;;18.20;10.10;;;;;;;15.16;100.00;100562.41;5094376;28;20113;-72
2022/05/05 05:55:39;;;;;;;14.57;10.80;;;;;;;15.21;100.00;100562.03;5093363;28;20105;-71
2022/05/05 05:58:07;;;;;;;16.77;10.88;;;;;;;15.23;100.00;100565.47;5092881;28;20047;-71
2022/05/05 06:00:36;;;;;;;17.13;12.00;;;;;;;15.25;100.00;100562.66;5093057;28;20051;-71
2022/05/05 06:05:51;;;;;;;12.95;9.65;;;;;;;15.48;100.00;100567.19;5094754;28;20101;-72
2022/05/05 06:08:19;;;;;;;13.85;9.35;;;;;;;15.24;100.00;100567.16;5070984;28;20053;-71
2022/05/05 06:10:48;;;;;;;12.55;9.82;;;;;;;15.36;100.00;100563.59;5076015;28;20041;-73
2022/05/05 06:13:19;;;;;;;12.82;9.27;;;;;;;15.61;100.00;100567.97;5072665;28;20052;-72
2022/05/05 06:15:47;;;;;;;15.95;9.68;;;;;;;15.46;100.00;100567.31;5072924;28;20106;-72
2022/05/05 06:18:15;;;;;;;13.73;9.45;;;;;;;15.67;100.00;100561.28;5073859;28;20040;-73
2022/05/05 06:20:46;;;;;;;12.57;8.75;;;;;;;15.84;100.00;100566.25;5072903;28;20098;-71
2022/05/05 06:23:16;;;;;;;11.98;9.43;;;;;;;16.00;100.00;100569.44;5072535;28;20063;-71
2022/05/05 06:25:44;;;;;;;10.95;8.73;;;;;;;15.92;100.00;100574.59;5072823;28;20049;-72
2022/05/05 06:28:12;;;;;;;11.05;8.38;;;;;;;16.10;100.00;100576.78;5076626;28;20051;-71
2022/05/05 06:30:40;;;;;;;12.30;9.00;;;;;;;15.74;100.00;100576.00;5093828;28;20051;-71
2022/05/05 06:33:08;;;;;;;12.93;8.10;;;;;;;15.81;100.00;100574.53;5093925;28;20472;-73
2022/05/05 06:35:37;;;;;;;12.98;8.50;;;;;;;15.87;100.00;100575.91;5092881;28;20047;-71
2022/05/05 06:38:05;;;;;;;11.43;7.60;;;;;;;16.14;100.00;100580.97;5092786;28;20044;-70
2022/05/05 06:40:35;;;;;;;11.10;7.75;;;;;;;16.30;100.00;100574.25;5092989;28;20151;-70
2022/05/05 06:43:03;;;;;;;9.68;7.13;;;;;;;16.51;100.00;100576.25;5092656;28;20075;-70
2022/05/05 06:45:32;;;;;;;8.88;7.28;;;;;;;16.57;100.00;100581.97;5093829;28;20050;-70
2022/05/05 06:48:01;;;;;;;8.60;7.20;;;;;;;16.39;100.00;100578.06;5092603;28;20454;-71
2022/05/05 06:50:30;;;;;;;10.38;7.35;;;;;;;16.45;100.00;100572.19;5093617;28;20481;-73
2022/05/05 06:53:00;;;;;;;9.68;6.72;;;;;;;16.67;98.87;100576.72;5092346;28;20127;-69
2022/05/05 06:55:28;;;;;;;8.98;7.18;;;;;;;16.75;98.55;100578.81;5093588;28;20054;-69
2022/05/05 06:57:57;;;;;;;9.15;6.93;;;;;;;16.80;100.00;100577.47;5093677;28;20042;-69
2022/05/05 07:01:51;;;;;;;9.90;7.03;;;;;;;17.01;96.34;100584.81;5093770;28;20101;-67
2022/05/05 07:03:15;;;;;;;10.77;7.65;;;;;;;16.83;100.00;100582.63;5091896;28;20055;-68
2022/05/05 07:05:42;;;;;;;9.93;7.28;;;;;;;16.87;100.00;100585.91;5093501;28;20114;-70
2022/05/05 07:08:11;;;;;;;10.82;7.38;;;;;;;16.84;100.00;100584.31;5093072;28;20040;-70
2022/05/05 07:10:53;;;;;;;9.40;6.75;;;;;;;16.94;96.30;100586.28;5091460;28;20048;-69
2022/05/05 07:13:24;;;;;;;11.40;6.90;;;;;;;17.06;92.71;100594.19;5093049;28;20063;-69
2022/05/05 07:15:53;;;;;;;9.13;7.43;;;;;;;17.21;93.65;100594.78;5092154;28;20054;-69
2022/05/05 07:18:21;;;;;;;11.65;7.95;;;;;;;17.77;88.67;100593.78;5092782;28;20048;-69
2022/05/05 07:20:50;;;;;;;8.82;7.10;;;;;;;17.92;88.01;100600.56;5092960;28;20051;-69
2022/05/05 07:23:18;;;;;;;9.45;6.35;;;;;;;18.14;84.04;100605.81;5091387;28;20121;-69
2022/05/05 07:25:46;;;;;;;10.43;7.15;;;;;;;18.21;87.30;100601.59;5091612;28;20079;-69
2022/05/05 07:28:16;;;;;;;11.68;6.82;;;;;;;18.36;78.42;100607.53;5092716;28;20123;-70
2022/05/05 07:30:45;;;;;;;10.68;7.03;;;;;;;18.05;79.52;100608.44;5091680;28;20059;-68
2022/05/05 07:33:14;;;;;;;18.02;8.05;;;;;;;18.18;86.71;100606.41;5091023;28;20075;-70
2022/05/05 07:35:42;;;;;;;14.43;8.27;;;;;;;18.27;89.04;100606.47;5092990;28;20089;-69
2022/05/05 07:38:16;;;;;;;9.68;6.70;;;;;;;18.31;79.51;100610.59;5092834;28;20044;-69
2022/05/05 07:40:49;;;;;;;10.63;7.18;;;;;;;18.29;82.29;100611.75;5092357;28;20052;-69
2022/05/05 07:43:17;;;;;;;9.35;7.75;;;;;;;18.45;87.53;100605.88;5091427;28;20496;-70
2022/05/05 07:45:49;;;;;;;10.20;7.47;;;;;;;18.43;87.80;100607.81;5091902;28;20051;-69
2022/05/05 07:48:19;;;;;;;11.35;7.57;;;;;;;18.44;86.93;100610.41;5091442;28;20063;-70
2022/05/05 07:50:48;;;;;;;11.90;7.53;;;;;;;18.74;84.46;100606.03;5093191;28;20075;-69
2022/05/05 07:53:17;;;;;;;9.88;7.43;;;;;;;18.90;78.87;100616.31;5092888;28;20040;-70
2022/05/05 07:55:45;;;;;;;11.00;6.80;;;;;;;18.84;77.67;100610.50;5091861;28;20040;-69
2022/05/05 07:58:13;;;;;;;8.07;6.22;;;;;;;18.98;74.93;100613.78;5092780;28;20041;-73
2022/05/05 08:00:41;;;;;;;9.35;6.05;;;;;;;18.92;71.72;100608.97;5092848;28;20044;-69
2022/05/05 08:03:13;;;;;;;9.60;5.72;;;;;;;18.72;72.89;100610.69;5092965;28;20040;-68
2022/05/05 08:05:41;;;;;;;7.38;5.68;;;;;;;18.76;72.01;100612.16;5093009;28;20055;-69
2022/05/05 08:08:10;;;;;;;10.07;5.85;;;;;;;18.84;73.52;100613.19;5093046;28;20048;-68
2022/05/05 08:10:38;;;;;;;8.45;6.20;;;;;;;18.84;71.61;100615.88;5091415;28;20052;-69
2022/05/05 08:13:07;;;;;;;8.45;5.82;;;;;;;18.97;71.11;100629.16;5092901;28;20036;-68
2022/05/05 08:15:35;;;;;;;9.75;5.32;;;;;;;18.90;72.87;100627.13;5091287;28;20048;-69
2022/05/05 08:18:03;;;;;;;7.95;5.45;;;;;;;19.01;71.53;100622.50;5092419;28;20469;-68
2022/05/05 08:20:33;;;;;;;11.05;7.40;;;;;;;19.23;69.03;100629.53;5092429;28;20450;-69
2022/05/05 08:23:01;;;;;;;7.03;5.18;;;;;;;19.30;67.73;100619.88;5093367;28;20056;-69
2022/05/05 08:28:32;;;;;;;7.28;5.13;;;;;;;19.45;65.16;100629.28;5096070;28;20485;-70
2022/05/05 08:31:00;;;;;;;6.07;4.70;;;;;;;19.65;63.24;100630.19;5095284;28;20059;-68
2022/05/05 08:33:30;;;;;;;9.18;4.97;;;;;;;19.89;63.48;100623.50;5095867;28;20476;-68
2022/05/05 08:36:00;;;;;;;6.90;5.30;;;;;;;19.86;65.19;100621.91;5094636;28;20060;-69
2022/05/05 08:38:28;;;;;;;7.18;5.00;;;;;;;19.43;64.99;100625.88;5095909;28;20048;-69
2022/05/05 08:40:59;;;;;;;7.10;5.53;;;;;;;19.45;66.22;100618.44;5096283;28;20040;-69
2022/05/05 08:43:28;;;;;;;8.02;5.18;;;;;;;19.69;64.27;100614.53;5095703;28;20123;-69
2022/05/05 08:46:23;;;;;;;7.13;4.82;;;;;;;19.67;64.87;100613.78;5096251;28;20052;-74
2022/05/05 08:48:54;;;;;;;6.18;4.75;;;;;;;19.41;63.66;100621.59;5094799;28;20483;-69
2022/05/05 08:51:26;;;;;;;6.78;4.53;;;;;;;19.12;65.91;100614.28;5095635;28;20473;-70
2022/05/05 08:53:56;;;;;;;8.82;5.05;;;;;;;19.35;66.20;100617.59;5094271;28;20048;-70
2022/05/05 08:56:24;;;;;;;7.65;4.60;;;;;;;19.53;65.11;100616.91;5093336;28;20101;-70
2022/05/05 08:58:53;;;;;;;7.88;4.57;;;;;;;19.55;63.78;100621.16;5093792;28;20056;-70
2022/05/05 09:01:21;;;;;;;6.47;4.65;;;;;;;19.66;62.82;100614.78;5093635;28;20075;-68
2022/05/05 09:03:49;;;;;;;6.60;4.65;;;;;;;19.92;61.13;100621.34;5095144;28;20044;-71
2022/05/05 09:06:18;;;;;;;6.25;4.53;;;;;;;20.12;62.03;100626.75;5094274;28;20094;-69
2022/05/05 09:08:53;;;;;;;7.63;4.45;;;;;;;20.32;61.84;100622.16;5094411;28;20059;-69
2022/05/05 09:11:23;;;;;;;7.20;4.60;;;;;;;20.30;57.98;100620.44;5094110;28;20044;-70
2022/05/05 09:13:52;;;;;;;8.18;4.32;;;;;;;20.39;58.33;100634.13;5094421;28;20046;-69
2022/05/05 09:16:25;;;;;;;7.00;4.65;;;;;;;20.51;57.04;100631.13;5094072;28;20105;-70
2022/05/05 09:18:54;;;;;;;6.97;3.90;;;;;;;20.42;57.50;100634.69;5094387;28;20052;-68
2022/05/05 09:21:32;;;;;;;7.40;4.82;;;;;;;20.57;57.44;100638.66;5094922;28;20048;-70
2022/05/05 09:26:56;;;;;;;5.45;4.28;;;;;;;20.35;57.50;100638.97;5095373;28;20051;-69
2022/05/05 09:29:25;;;;;;;7.25;4.47;;;;;;;20.03;57.78;100633.88;5093856;28;20055;-69
2022/05/05 09:31:53;;;;;;;7.13;4.65;;;;;;;20.16;58.41;100639.84;5095428;28;20050;-69
2022/05/05 09:34:21;;;;;;;6.22;4.60;;;;;;;20.39;57.66;100634.97;5092574;28;20051;-69
2022/05/05 09:36:49;;;;;;;7.50;4.07;;;;;;;20.41;55.19;100641.09;5095094;28;20046;-68
2022/05/05 09:39:19;;;;;;;7.05;4.57;;;;;;;20.56;56.47;100645.09;5093561;28;20044;-68
2022/05/05 09:41:49;;;;;;;9.90;4.40;;;;;;;20.65;55.84;100643.34;5093888;28;20048;-69
2022/05/05 09:44:21;;;;;;;7.93;4.15;;;;;;;20.42;56.05;100634.69;5093662;28;20059;-69
2022/05/05 09:46:49;;;;;;;6.47;4.13;;;;;;;20.45;56.94;100634.41;5095220;28;20097;-69
2022/05/05 09:49:19;;;;;;;8.18;4.00;;;;;;;20.75;55.19;100632.47;5094706;28;20040;-68
2022/05/05 09:57:39;;;;;;;6.20;4.22;;;;;;;20.93;54.59;100633.38;5095044;28;20076;-69
2022/05/05 09:57:43;;;;;;;5.95;3.97;;;;;;;21.10;53.76;100627.16;5094329;28;20126;-69
2022/05/05 10:00:25;;;;;;;5.28;3.92;;;;;;;21.00;52.82;100620.94;5093561;28;20048;-69
2022/05/05 10:05:44;;;;;;;5.47;3.80;;;;;;;21.07;52.74;100603.06;5093282;28;20097;-69
2022/05/05 10:08:16;;;;;;;6.07;4.20;;;;;;;20.94;53.92;100613.44;5094463;28;20532;-69
2022/05/05 10:10:46;;;;;;;5.00;3.63;;;;;;;21.20;53.76;100602.69;5092883;28;20056;-69
2022/05/05 10:13:20;;;;;;;5.32;3.28;;;;;;;21.36;49.86;100602.06;5094683;28;20043;-68
2022/05/05 10:15:50;;;;;;;5.10;2.63;;;;;;;21.41;47.88;100602.44;5093170;28;20116;-69
2022/05/05 10:18:28;;;;;;;6.93;2.97;;;;;;;21.38;46.80;100586.47;5094155;28;20089;-70
2022/05/05 10:20:58;;;;;;;6.50;3.00;;;;;;;21.62;48.06;100607.59;5092966;28;20139;-70
2022/05/05 10:23:34;;;;;;;4.50;2.88;;;;;;;21.57;46.71;100599.91;5092200;28;20135;-70
2022/05/05 10:26:04;;;;;;;4.60;2.80;;;;;;;21.64;47.19;100598.28;5093573;28;20422;-69
2022/05/05 10:28:47;;;;;;;5.65;2.95;;;;;;;21.62;46.16;100607.59;5093426;28;20036;-69
2022/05/05 10:31:42;;;;;;;5.43;2.43;;;;;;;21.53;47.07;100597.66;5092221;28;20101;-69
2022/05/05 10:34:19;;;;;;;5.22;3.00;;;;;;;21.59;47.53;100603.31;5092149;28;20071;-70
2022/05/05 10:37:04;;;;;;;6.22;3.20;;;;;;;21.71;47.30;100590.34;5093463;28;20036;-68
2022/05/05 10:39:47;;;;;;;5.20;2.78;;;;;;;21.87;46.46;100601.38;5093254;28;20248;-69
2022/05/05 10:42:20;;;;;;;6.60;2.88;;;;;;;21.98;45.18;100597.53;5093645;28;20032;-69
2022/05/05 10:45:12;;;;;;;4.50;2.65;;;;;;;22.10;45.28;100600.88;5092003;28;20048;-69
2022/05/05 10:48:08;;;;;;;3.78;2.70;;;;;;;22.11;44.51;100600.75;5092883;28;20043;-70
2022/05/05 10:50:39;;;;;;;5.70;2.70;;;;;;;22.17;44.77;100605.53;5093003;28;20443;-69
2022/05/05 10:53:08;;;;;;;5.30;2.85;;;;;;;22.21;44.37;100598.78;5092138;28;20067;-69
2022/05/05 10:55:45;;;;;;;4.82;2.60;;;;;;;22.13;44.52;100598.72;5091937;28;20097;-70
2022/05/05 10:59:06;;;;;;;5.60;2.83;;;;;;;22.24;44.45;100598.47;5093279;28;20040;-70
2022/05/05 11:02:01;;;;;;;7.15;3.20;;;;;;;22.41;43.36;100594.00;5091642;28;20447;-70
2022/05/05 11:04:30;;;;;;;6.53;3.15;;;;;;;22.29;43.14;100595.25;5034694;28;20499;-70
2022/05/05 11:07:36;;;;;;;4.75;2.90;;;;;;;22.38;42.61;100598.88;5092254;28;20545;-70
2022/05/05 11:10:09;;;;;;;3.83;2.60;;;;;;;22.42;42.12;100594.84;5093227;28;20048;-70
2022/05/05 11:12:38;;;;;;;4.93;2.85;;;;;;;22.43;42.42;100585.69;5093280;28;20044;-70
2022/05/05 11:23:45;;;;;;;4.32;3.00;;;;;;;22.47;42.98;100587.03;5092637;28;20059;-70
2022/05/05 11:26:18;;;;;;;3.75;2.50;;;;;;;22.50;42.62;100584.03;5092376;28;20051;-70
2022/05/05 11:28:48;;;;;;;4.18;2.78;;;;;;;22.46;42.38;100579.91;5092982;28;20066;-69
2022/05/05 11:31:20;;;;;;;4.80;3.15;;;;;;;22.47;43.50;100581.63;5093113;28;20051;-69
2022/05/05 11:33:53;;;;;;;4.82;2.70;;;;;;;22.63;43.53;100581.72;5093123;28;20370;-69
2022/05/05 11:36:22;;;;;;;4.63;2.60;;;;;;;22.73;43.41;100581.59;5093152;28;20525;-69
2022/05/05 11:38:51;;;;;;;5.57;2.80;;;;;;;22.77;43.34;100572.94;5091481;28;20044;-70
2022/05/05 11:41:20;;;;;;;5.50;2.80;;;;;;;22.91;42.45;100576.09;5092669;28;20429;-70
2022/05/05 11:46:38;;;;;;;3.67;2.63;;;;;;;22.86;42.32;100571.13;5091356;28;20146;-70
2022/05/05 11:49:08;;;;;;;4.30;2.78;;;;;;;22.79;42.34;100570.91;5091796;28;20044;-70
2022/05/05 11:51:37;;;;;;;4.90;2.95;;;;;;;22.98;42.12;100566.28;5091133;28;20390;-70
2022/05/05 11:54:08;;;;;;;4.47;2.70;;;;;;;22.95;41.31;100561.13;5091472;28;20446;-69
2022/05/05 11:56:38;;;;;;;5.43;2.83;;;;;;;22.83;40.33;100558.69;5091350;28;20075;-70
2022/05/05 12:02:06;;;;;;;4.05;2.67;;;;;;;23.03;42.76;100544.84;5095634;28;20102;-69
2022/05/05 12:04:38;;;;;;;5.63;2.83;;;;;;;23.25;41.21;100548.81;5096374;28;20052;-70
2022/05/05 12:07:09;;;;;;;5.72;3.00;;;;;;;23.29;41.46;100545.59;5095524;28;20072;-69
2022/05/05 12:09:39;;;;;;;6.47;2.90;;;;;;;23.30;41.02;100546.44;5096326;28;20043;-68
2022/05/05 12:12:16;;;;;;;6.57;2.92;;;;;;;23.41;41.30;100537.94;5095297;28;20056;-69